sensor_id;sensor_type;location;lat;lon;timestamp;temperature;humidity
23685;DHT22;12020;51.384;6.908;2024-02-26T00:00:46;6.90;99.90
23685;DHT22;12020;51.384;6.908;2024-02-26T00:03:11;6.80;99.90
23685;DHT22;12020;51.384;6.908;2024-02-26T00:05:37;6.90;99.90
23685;DHT22;12020;51.384;6.908;2024-02-26T00:08:06;6.90;99.90
23685;DHT22;12020;51.384;6.908;2024-02-26T00:10:35;6.90;99.90
23685;DHT22;12020;51.384;6.908;2024-02-26T00:13:05;6.90;99.90
23685;DHT22;12020;51.384;6.908;2024-02-26T00:15:33;6.90;99.90
23685;DHT22;12020;51.384;6.908;2024-02-26T00:18:01;6.80;99.90
23685;DHT22;12020;51.384;6.908;2024-02-26T00:20:38;6.80;99.90
23685;DHT22;12020;51.384;6.908;2024-02-26T00:25:50;6.70;99.90
23685;DHT22;12020;51.384;6.908;2024-02-26T00:28:16;6.60;99.90
23685;DHT22;12020;51.384;6.908;2024-02-26T00:30:42;6.60;99.90
23685;DHT22;12020;51.384;6.908;2024-02-26T00:33:11;6.60;99.90
23685;DHT22;12020;51.384;6.908;2024-02-26T00:35:44;6.60;99.90
23685;DHT22;12020;51.384;6.908;2024-02-26T00:38:18;6.50;99.90
23685;DHT22;12020;51.384;6.908;2024-02-26T00:40:45;6.50;99.90
23685;DHT22;12020;51.384;6.908;2024-02-26T00:43:11;6.50;99.90
23685;DHT22;12020;51.384;6.908;2024-02-26T00:45:45;6.50;99.90
23685;DHT22;12020;51.384;6.908;2024-02-26T00:48:14;6.50;99.90
23685;DHT22;12020;51.384;6.908;2024-02-26T00:53:11;6.50;99.90
23685;DHT22;12020;51.384;6.908;2024-02-26T00:55:37;6.60;99.90
23685;DHT22;12020;51.384;6.908;2024-02-26T00:58:04;6.60;99.90
23685;DHT22;12020;51.384;6.908;2024-02-26T01:00:31;6.70;99.90
23685;DHT22;12020;51.384;6.908;2024-02-26T01:02:57;6.70;99.90
23685;DHT22;12020;51.384;6.908;2024-02-26T01:05:22;6.70;99.90
23685;DHT22;12020;51.384;6.908;2024-02-26T01:07:50;6.70;99.90
23685;DHT22;12020;51.384;6.908;2024-02-26T01:10:17;6.80;99.90
23685;DHT22;12020;51.384;6.908;2024-02-26T01:12:44;6.80;99.90
23685;DHT22;12020;51.384;6.908;2024-02-26T01:15:10;6.80;99.90
23685;DHT22;12020;51.384;6.908;2024-02-26T01:17:36;6.80;99.90
23685;DHT22;12020;51.384;6.908;2024-02-26T01:20:02;6.80;99.90
23685;DHT22;12020;51.384;6.908;2024-02-26T01:24:57;6.80;99.90
23685;DHT22;12020;51.384;6.908;2024-02-26T01:27:22;6.80;99.90
23685;DHT22;12020;51.384;6.908;2024-02-26T01:29:53;6.90;99.90
23685;DHT22;12020;51.384;6.908;2024-02-26T01:32:21;6.80;99.90
23685;DHT22;12020;51.384;6.908;2024-02-26T01:34:47;6.80;99.90
23685;DHT22;12020;51.384;6.908;2024-02-26T01:37:14;6.80;99.90
23685;DHT22;12020;51.384;6.908;2024-02-26T01:39:43;6.90;99.90
23685;DHT22;12020;51.384;6.908;2024-02-26T01:42:09;6.90;99.90
23685;DHT22;12020;51.384;6.908;2024-02-26T01:44:36;6.80;99.90
23685;DHT22;12020;51.384;6.908;2024-02-26T01:47:15;6.80;99.90
23685;DHT22;12020;51.384;6.908;2024-02-26T01:49:41;6.90;99.90
23685;DHT22;12020;51.384;6.908;2024-02-26T01:52:08;6.80;99.90
23685;DHT22;12020;51.384;6.908;2024-02-26T01:54:37;6.90;99.90
23685;DHT22;12020;51.384;6.908;2024-02-26T01:57:05;6.80;99.90
23685;DHT22;12020;51.384;6.908;2024-02-26T01:59:32;6.80;99.90
23685;DHT22;12020;51.384;6.908;2024-02-26T02:02:10;6.80;99.90
23685;DHT22;12020;51.384;6.908;2024-02-26T02:04:37;6.80;99.90
23685;DHT22;12020;51.384;6.908;2024-02-26T02:07:04;6.80;99.90
23685;DHT22;12020;51.384;6.908;2024-02-26T02:09:31;6.80;99.90
23685;DHT22;12020;51.384;6.908;2024-02-26T02:12:03;6.80;99.90
23685;DHT22;12020;51.384;6.908;2024-02-26T02:14:30;6.80;99.90
23685;DHT22;12020;51.384;6.908;2024-02-26T02:17:00;6.80;99.90
23685;DHT22;12020;51.384;6.908;2024-02-26T02:19:28;6.80;99.90
23685;DHT22;12020;51.384;6.908;2024-02-26T02:21:55;6.80;99.90
23685;DHT22;12020;51.384;6.908;2024-02-26T02:24:22;6.70;99.90
23685;DHT22;12020;51.384;6.908;2024-02-26T02:26:50;6.70;99.90
23685;DHT22;12020;51.384;6.908;2024-02-26T02:29:18;6.70;99.90
23685;DHT22;12020;51.384;6.908;2024-02-26T02:31:43;6.70;99.90
23685;DHT22;12020;51.384;6.908;2024-02-26T02:34:12;6.70;99.90
23685;DHT22;12020;51.384;6.908;2024-02-26T02:36:49;6.70;99.90
23685;DHT22;12020;51.384;6.908;2024-02-26T02:39:15;6.70;99.90
23685;DHT22;12020;51.384;6.908;2024-02-26T02:41:44;6.70;99.90
23685;DHT22;12020;51.384;6.908;2024-02-26T02:46:40;6.80;99.90
23685;DHT22;12020;51.384;6.908;2024-02-26T02:49:10;6.80;99.90
23685;DHT22;12020;51.384;6.908;2024-02-26T02:51:39;6.80;99.90
23685;DHT22;12020;51.384;6.908;2024-02-26T02:54:06;6.80;99.90
23685;DHT22;12020;51.384;6.908;2024-02-26T02:56:33;6.80;99.90
23685;DHT22;12020;51.384;6.908;2024-02-26T02:59:01;6.80;99.90
23685;DHT22;12020;51.384;6.908;2024-02-26T03:01:29;6.80;99.90
23685;DHT22;12020;51.384;6.908;2024-02-26T03:03:56;6.70;99.90
23685;DHT22;12020;51.384;6.908;2024-02-26T03:06:24;6.70;99.90
23685;DHT22;12020;51.384;6.908;2024-02-26T03:08:53;6.70;99.90
23685;DHT22;12020;51.384;6.908;2024-02-26T03:11:20;6.60;99.90
23685;DHT22;12020;51.384;6.908;2024-02-26T03:13:52;6.60;99.90
23685;DHT22;12020;51.384;6.908;2024-02-26T03:16:18;6.50;99.90
23685;DHT22;12020;51.384;6.908;2024-02-26T03:18:45;6.40;99.90
23685;DHT22;12020;51.384;6.908;2024-02-26T03:21:13;6.40;99.90
23685;DHT22;12020;51.384;6.908;2024-02-26T03:23:40;6.30;99.90
23685;DHT22;12020;51.384;6.908;2024-02-26T03:26:05;6.30;99.90
23685;DHT22;12020;51.384;6.908;2024-02-26T03:33:30;6.20;99.90
23685;DHT22;12020;51.384;6.908;2024-02-26T03:35:57;6.20;99.90
23685;DHT22;12020;51.384;6.908;2024-02-26T03:38:25;6.10;99.90
23685;DHT22;12020;51.384;6.908;2024-02-26T03:40:51;6.10;99.90
23685;DHT22;12020;51.384;6.908;2024-02-26T03:43:19;6.10;99.90
23685;DHT22;12020;51.384;6.908;2024-02-26T03:45:46;6.10;99.90
23685;DHT22;12020;51.384;6.908;2024-02-26T03:48:13;6.10;99.90
23685;DHT22;12020;51.384;6.908;2024-02-26T03:53:08;6.00;99.90
23685;DHT22;12020;51.384;6.908;2024-02-26T03:55:40;6.00;99.90
23685;DHT22;12020;51.384;6.908;2024-02-26T03:58:07;6.00;99.90
23685;DHT22;12020;51.384;6.908;2024-02-26T04:03:02;5.90;99.90
23685;DHT22;12020;51.384;6.908;2024-02-26T04:05:34;5.90;99.90
23685;DHT22;12020;51.384;6.908;2024-02-26T04:08:02;5.90;99.90
23685;DHT22;12020;51.384;6.908;2024-02-26T04:10:29;5.90;99.90
23685;DHT22;12020;51.384;6.908;2024-02-26T04:12:56;5.80;99.90
23685;DHT22;12020;51.384;6.908;2024-02-26T04:15:22;5.80;99.90
23685;DHT22;12020;51.384;6.908;2024-02-26T04:17:49;5.80;99.90
23685;DHT22;12020;51.384;6.908;2024-02-26T04:20:15;5.80;99.90
23685;DHT22;12020;51.384;6.908;2024-02-26T04:22:43;5.80;99.90
23685;DHT22;12020;51.384;6.908;2024-02-26T04:25:09;5.80;99.90
23685;DHT22;12020;51.384;6.908;2024-02-26T04:27:37;5.90;99.90
23685;DHT22;12020;51.384;6.908;2024-02-26T04:30:06;5.80;99.90
23685;DHT22;12020;51.384;6.908;2024-02-26T04:32:32;5.90;99.90
23685;DHT22;12020;51.384;6.908;2024-02-26T04:35:02;5.90;99.90
23685;DHT22;12020;51.384;6.908;2024-02-26T04:37:28;5.90;99.90
23685;DHT22;12020;51.384;6.908;2024-02-26T04:39:58;5.90;99.90
23685;DHT22;12020;51.384;6.908;2024-02-26T04:42:29;5.80;99.90
23685;DHT22;12020;51.384;6.908;2024-02-26T04:44:57;5.80;99.90
23685;DHT22;12020;51.384;6.908;2024-02-26T04:50:00;5.90;99.90
23685;DHT22;12020;51.384;6.908;2024-02-26T04:52:29;5.80;99.90
23685;DHT22;12020;51.384;6.908;2024-02-26T04:54:57;5.80;99.90
23685;DHT22;12020;51.384;6.908;2024-02-26T04:57:29;5.80;99.90
23685;DHT22;12020;51.384;6.908;2024-02-26T04:59:55;5.80;99.90
23685;DHT22;12020;51.384;6.908;2024-02-26T05:02:22;5.80;99.90
23685;DHT22;12020;51.384;6.908;2024-02-26T05:04:48;5.80;99.90
23685;DHT22;12020;51.384;6.908;2024-02-26T05:09:46;5.80;99.90
23685;DHT22;12020;51.384;6.908;2024-02-26T05:12:14;5.70;99.90
23685;DHT22;12020;51.384;6.908;2024-02-26T05:14:40;5.70;99.90
23685;DHT22;12020;51.384;6.908;2024-02-26T05:17:06;5.70;99.90
23685;DHT22;12020;51.384;6.908;2024-02-26T05:19:37;5.70;99.90
23685;DHT22;12020;51.384;6.908;2024-02-26T05:22:09;5.60;99.90
23685;DHT22;12020;51.384;6.908;2024-02-26T05:24:37;5.60;99.90
23685;DHT22;12020;51.384;6.908;2024-02-26T05:27:11;5.60;99.90
23685;DHT22;12020;51.384;6.908;2024-02-26T05:29:39;5.60;99.90
23685;DHT22;12020;51.384;6.908;2024-02-26T05:32:08;5.60;99.90
23685;DHT22;12020;51.384;6.908;2024-02-26T05:34:36;5.60;99.90
23685;DHT22;12020;51.384;6.908;2024-02-26T05:37:14;5.50;99.90
23685;DHT22;12020;51.384;6.908;2024-02-26T05:39:42;5.50;99.90
23685;DHT22;12020;51.384;6.908;2024-02-26T05:42:10;5.50;99.90
23685;DHT22;12020;51.384;6.908;2024-02-26T05:44:39;5.50;99.90
23685;DHT22;12020;51.384;6.908;2024-02-26T05:47:07;5.50;99.90
23685;DHT22;12020;51.384;6.908;2024-02-26T05:49:32;5.50;99.90
23685;DHT22;12020;51.384;6.908;2024-02-26T05:51:58;5.50;99.90
23685;DHT22;12020;51.384;6.908;2024-02-26T05:54:26;5.40;99.90
23685;DHT22;12020;51.384;6.908;2024-02-26T05:56:54;5.40;99.90
23685;DHT22;12020;51.384;6.908;2024-02-26T05:59:20;5.40;99.90
23685;DHT22;12020;51.384;6.908;2024-02-26T06:01:46;5.40;99.90
23685;DHT22;12020;51.384;6.908;2024-02-26T06:04:19;5.40;99.90
23685;DHT22;12020;51.384;6.908;2024-02-26T06:06:44;5.40;99.90
23685;DHT22;12020;51.384;6.908;2024-02-26T06:09:15;5.40;99.90
23685;DHT22;12020;51.384;6.908;2024-02-26T06:11:42;5.40;99.90
23685;DHT22;12020;51.384;6.908;2024-02-26T06:14:10;5.40;99.90
23685;DHT22;12020;51.384;6.908;2024-02-26T06:16:38;5.50;99.90
23685;DHT22;12020;51.384;6.908;2024-02-26T06:19:04;5.40;99.90
23685;DHT22;12020;51.384;6.908;2024-02-26T06:21:36;5.50;99.90
23685;DHT22;12020;51.384;6.908;2024-02-26T06:24:02;5.50;99.90
23685;DHT22;12020;51.384;6.908;2024-02-26T06:26:28;5.40;99.90
23685;DHT22;12020;51.384;6.908;2024-02-26T06:29:03;5.50;99.90
23685;DHT22;12020;51.384;6.908;2024-02-26T06:31:29;5.50;99.90
23685;DHT22;12020;51.384;6.908;2024-02-26T06:33:55;5.50;99.90
23685;DHT22;12020;51.384;6.908;2024-02-26T06:36:25;5.50;99.90
23685;DHT22;12020;51.384;6.908;2024-02-26T06:38:53;5.50;99.90
23685;DHT22;12020;51.384;6.908;2024-02-26T06:41:22;5.50;99.90
23685;DHT22;12020;51.384;6.908;2024-02-26T06:43:55;5.50;99.90
23685;DHT22;12020;51.384;6.908;2024-02-26T06:46:22;5.50;99.90
23685;DHT22;12020;51.384;6.908;2024-02-26T06:51:27;5.50;99.90
23685;DHT22;12020;51.384;6.908;2024-02-26T06:53:54;5.50;99.90
23685;DHT22;12020;51.384;6.908;2024-02-26T06:56:20;5.60;99.90
23685;DHT22;12020;51.384;6.908;2024-02-26T06:58:47;5.60;99.90
23685;DHT22;12020;51.384;6.908;2024-02-26T07:01:13;5.60;99.90
23685;DHT22;12020;51.384;6.908;2024-02-26T07:03:43;5.60;99.90
23685;DHT22;12020;51.384;6.908;2024-02-26T07:06:10;5.60;99.90
23685;DHT22;12020;51.384;6.908;2024-02-26T07:08:38;5.60;99.90
23685;DHT22;12020;51.384;6.908;2024-02-26T07:11:07;5.70;99.90
23685;DHT22;12020;51.384;6.908;2024-02-26T07:13:32;5.80;99.90
23685;DHT22;12020;51.384;6.908;2024-02-26T07:15:58;5.90;99.90
23685;DHT22;12020;51.384;6.908;2024-02-26T07:18:23;5.80;99.90
23685;DHT22;12020;51.384;6.908;2024-02-26T07:20:49;5.80;99.90
23685;DHT22;12020;51.384;6.908;2024-02-26T07:23:14;5.80;99.90
23685;DHT22;12020;51.384;6.908;2024-02-26T07:25:40;5.80;99.90
23685;DHT22;12020;51.384;6.908;2024-02-26T07:28:06;5.80;99.90
23685;DHT22;12020;51.384;6.908;2024-02-26T07:30:31;5.80;99.90
23685;DHT22;12020;51.384;6.908;2024-02-26T07:32:57;5.80;99.90
23685;DHT22;12020;51.384;6.908;2024-02-26T07:35:23;5.90;99.90
23685;DHT22;12020;51.384;6.908;2024-02-26T07:37:49;5.90;99.90
23685;DHT22;12020;51.384;6.908;2024-02-26T07:40:15;5.90;99.90
23685;DHT22;12020;51.384;6.908;2024-02-26T07:42:42;5.90;99.90
23685;DHT22;12020;51.384;6.908;2024-02-26T07:45:07;5.90;99.90
23685;DHT22;12020;51.384;6.908;2024-02-26T07:47:33;5.90;99.90
23685;DHT22;12020;51.384;6.908;2024-02-26T07:50:01;5.90;99.90
23685;DHT22;12020;51.384;6.908;2024-02-26T07:52:26;5.90;99.90
23685;DHT22;12020;51.384;6.908;2024-02-26T07:54:52;5.90;99.90
23685;DHT22;12020;51.384;6.908;2024-02-26T07:57:17;5.90;99.90
23685;DHT22;12020;51.384;6.908;2024-02-26T07:59:43;5.80;99.90
23685;DHT22;12020;51.384;6.908;2024-02-26T08:02:10;5.80;99.90
23685;DHT22;12020;51.384;6.908;2024-02-26T08:04:35;5.90;99.90
23685;DHT22;12020;51.384;6.908;2024-02-26T08:07:01;5.80;99.90
23685;DHT22;12020;51.384;6.908;2024-02-26T08:09:26;5.80;99.90
23685;DHT22;12020;51.384;6.908;2024-02-26T08:11:52;5.80;99.90
23685;DHT22;12020;51.384;6.908;2024-02-26T08:14:17;5.70;99.90
23685;DHT22;12020;51.384;6.908;2024-02-26T08:16:43;5.70;99.90
23685;DHT22;12020;51.384;6.908;2024-02-26T08:19:08;5.70;99.90
23685;DHT22;12020;51.384;6.908;2024-02-26T08:21:35;5.70;99.90
23685;DHT22;12020;51.384;6.908;2024-02-26T08:24:02;5.70;99.90
23685;DHT22;12020;51.384;6.908;2024-02-26T08:26:27;5.70;99.90
23685;DHT22;12020;51.384;6.908;2024-02-26T08:28:53;5.70;99.90
23685;DHT22;12020;51.384;6.908;2024-02-26T08:31:21;5.70;99.90
23685;DHT22;12020;51.384;6.908;2024-02-26T08:33:46;5.70;99.90
23685;DHT22;12020;51.384;6.908;2024-02-26T08:36:12;5.70;99.90
23685;DHT22;12020;51.384;6.908;2024-02-26T08:38:38;5.80;99.90
23685;DHT22;12020;51.384;6.908;2024-02-26T08:41:04;5.80;99.90
23685;DHT22;12020;51.384;6.908;2024-02-26T08:43:29;5.80;99.90
23685;DHT22;12020;51.384;6.908;2024-02-26T08:45:56;5.80;99.90
23685;DHT22;12020;51.384;6.908;2024-02-26T08:48:21;5.80;99.90
23685;DHT22;12020;51.384;6.908;2024-02-26T08:50:47;5.80;99.90
23685;DHT22;12020;51.384;6.908;2024-02-26T08:53:12;5.80;99.90
23685;DHT22;12020;51.384;6.908;2024-02-26T08:55:38;5.80;99.90
23685;DHT22;12020;51.384;6.908;2024-02-26T08:58:03;5.80;99.90
23685;DHT22;12020;51.384;6.908;2024-02-26T09:00:29;5.90;99.90
23685;DHT22;12020;51.384;6.908;2024-02-26T09:02:56;5.90;99.90
23685;DHT22;12020;51.384;6.908;2024-02-26T09:05:21;5.90;99.90
23685;DHT22;12020;51.384;6.908;2024-02-26T09:07:47;5.90;99.90
23685;DHT22;12020;51.384;6.908;2024-02-26T09:10:12;6.00;99.90
23685;DHT22;12020;51.384;6.908;2024-02-26T09:12:38;6.00;99.90
23685;DHT22;12020;51.384;6.908;2024-02-26T09:15:05;6.00;99.90
23685;DHT22;12020;51.384;6.908;2024-02-26T09:17:31;6.00;99.90
23685;DHT22;12020;51.384;6.908;2024-02-26T09:19:56;6.10;99.90
23685;DHT22;12020;51.384;6.908;2024-02-26T09:22:22;6.10;99.90
23685;DHT22;12020;51.384;6.908;2024-02-26T09:24:48;6.10;99.90
23685;DHT22;12020;51.384;6.908;2024-02-26T09:27:15;6.10;99.90
23685;DHT22;12020;51.384;6.908;2024-02-26T09:29:41;6.20;99.90
23685;DHT22;12020;51.384;6.908;2024-02-26T09:32:07;6.20;99.90
23685;DHT22;12020;51.384;6.908;2024-02-26T09:34:32;6.10;99.90
23685;DHT22;12020;51.384;6.908;2024-02-26T09:36:59;6.10;99.90
23685;DHT22;12020;51.384;6.908;2024-02-26T09:39:25;6.10;99.90
23685;DHT22;12020;51.384;6.908;2024-02-26T09:41:51;6.20;99.90
23685;DHT22;12020;51.384;6.908;2024-02-26T09:44:20;6.20;99.90
23685;DHT22;12020;51.384;6.908;2024-02-26T09:46:49;6.20;99.90
23685;DHT22;12020;51.384;6.908;2024-02-26T09:49:15;6.20;99.90
23685;DHT22;12020;51.384;6.908;2024-02-26T09:51:41;6.20;99.90
23685;DHT22;12020;51.384;6.908;2024-02-26T09:54:07;6.20;99.90
23685;DHT22;12020;51.384;6.908;2024-02-26T09:56:32;6.20;99.90
23685;DHT22;12020;51.384;6.908;2024-02-26T09:58:58;6.20;99.90
23685;DHT22;12020;51.384;6.908;2024-02-26T10:01:24;6.20;99.90
23685;DHT22;12020;51.384;6.908;2024-02-26T10:03:55;6.20;99.90
23685;DHT22;12020;51.384;6.908;2024-02-26T10:06:22;6.20;99.90
23685;DHT22;12020;51.384;6.908;2024-02-26T10:08:47;6.20;99.90
23685;DHT22;12020;51.384;6.908;2024-02-26T10:11:14;6.20;99.90
23685;DHT22;12020;51.384;6.908;2024-02-26T10:13:40;6.20;99.90
23685;DHT22;12020;51.384;6.908;2024-02-26T10:16:06;6.20;99.90
23685;DHT22;12020;51.384;6.908;2024-02-26T10:18:54;6.20;99.90
23685;DHT22;12020;51.384;6.908;2024-02-26T10:21:20;6.30;99.90
23685;DHT22;12020;51.384;6.908;2024-02-26T10:23:46;6.30;99.90
23685;DHT22;12020;51.384;6.908;2024-02-26T10:26:13;6.40;99.90
23685;DHT22;12020;51.384;6.908;2024-02-26T10:28:39;6.30;99.90
23685;DHT22;12020;51.384;6.908;2024-02-26T10:31:04;6.40;99.90
23685;DHT22;12020;51.384;6.908;2024-02-26T10:33:32;6.40;99.90
23685;DHT22;12020;51.384;6.908;2024-02-26T10:35:58;6.40;99.90
23685;DHT22;12020;51.384;6.908;2024-02-26T10:38:23;6.40;99.90
23685;DHT22;12020;51.384;6.908;2024-02-26T10:40:49;6.50;99.90
23685;DHT22;12020;51.384;6.908;2024-02-26T10:43:15;6.40;99.90
23685;DHT22;12020;51.384;6.908;2024-02-26T10:45:43;6.50;99.90
23685;DHT22;12020;51.384;6.908;2024-02-26T10:48:13;6.50;99.90
23685;DHT22;12020;51.384;6.908;2024-02-26T10:50:38;6.50;99.90
23685;DHT22;12020;51.384;6.908;2024-02-26T10:53:05;6.60;99.90
23685;DHT22;12020;51.384;6.908;2024-02-26T10:55:32;6.60;99.90
23685;DHT22;12020;51.384;6.908;2024-02-26T10:58:00;6.60;99.90
23685;DHT22;12020;51.384;6.908;2024-02-26T11:00:26;6.60;99.90
23685;DHT22;12020;51.384;6.908;2024-02-26T11:02:54;6.70;99.90
23685;DHT22;12020;51.384;6.908;2024-02-26T11:05:20;6.70;99.90
23685;DHT22;12020;51.384;6.908;2024-02-26T11:07:45;6.70;99.90
23685;DHT22;12020;51.384;6.908;2024-02-26T11:10:12;6.70;99.90
23685;DHT22;12020;51.384;6.908;2024-02-26T11:12:38;6.70;99.90
23685;DHT22;12020;51.384;6.908;2024-02-26T11:15:04;6.80;99.90
23685;DHT22;12020;51.384;6.908;2024-02-26T11:17:30;6.80;99.90
23685;DHT22;12020;51.384;6.908;2024-02-26T11:19:57;6.80;99.90
23685;DHT22;12020;51.384;6.908;2024-02-26T11:22:23;6.90;99.90
23685;DHT22;12020;51.384;6.908;2024-02-26T11:24:51;6.90;99.90
23685;DHT22;12020;51.384;6.908;2024-02-26T11:27:17;6.90;99.90
23685;DHT22;12020;51.384;6.908;2024-02-26T11:29:49;7.00;99.90
23685;DHT22;12020;51.384;6.908;2024-02-26T11:32:15;7.00;99.90
23685;DHT22;12020;51.384;6.908;2024-02-26T11:34:41;7.00;99.90
23685;DHT22;12020;51.384;6.908;2024-02-26T11:37:14;7.00;99.90
23685;DHT22;12020;51.384;6.908;2024-02-26T11:39:40;7.10;99.90
23685;DHT22;12020;51.384;6.908;2024-02-26T11:42:09;7.00;99.90
23685;DHT22;12020;51.384;6.908;2024-02-26T11:44:35;7.00;99.90
23685;DHT22;12020;51.384;6.908;2024-02-26T11:47:14;7.00;99.90
23685;DHT22;12020;51.384;6.908;2024-02-26T11:49:43;7.00;99.90
23685;DHT22;12020;51.384;6.908;2024-02-26T11:52:09;7.00;99.90
23685;DHT22;12020;51.384;6.908;2024-02-26T11:54:38;7.00;99.90
23685;DHT22;12020;51.384;6.908;2024-02-26T11:57:04;7.10;99.90
23685;DHT22;12020;51.384;6.908;2024-02-26T11:59:39;7.10;99.90
23685;DHT22;12020;51.384;6.908;2024-02-26T12:02:06;7.10;99.90
23685;DHT22;12020;51.384;6.908;2024-02-26T12:04:32;7.10;99.90
23685;DHT22;12020;51.384;6.908;2024-02-26T12:07:00;7.20;99.90
23685;DHT22;12020;51.384;6.908;2024-02-26T12:11:57;7.20;99.90
23685;DHT22;12020;51.384;6.908;2024-02-26T12:14:26;7.20;99.90
23685;DHT22;12020;51.384;6.908;2024-02-26T12:16:52;7.20;99.90
23685;DHT22;12020;51.384;6.908;2024-02-26T12:19:18;7.20;99.90
23685;DHT22;12020;51.384;6.908;2024-02-26T12:21:43;7.20;99.90
23685;DHT22;12020;51.384;6.908;2024-02-26T12:24:13;7.20;99.90
23685;DHT22;12020;51.384;6.908;2024-02-26T12:26:39;7.20;99.90
23685;DHT22;12020;51.384;6.908;2024-02-26T12:29:05;7.20;99.90
23685;DHT22;12020;51.384;6.908;2024-02-26T12:31:31;7.10;99.90
23685;DHT22;12020;51.384;6.908;2024-02-26T12:33:57;7.10;99.90
23685;DHT22;12020;51.384;6.908;2024-02-26T12:36:22;7.20;99.90
23685;DHT22;12020;51.384;6.908;2024-02-26T12:38:50;7.20;99.90
23685;DHT22;12020;51.384;6.908;2024-02-26T12:41:16;7.20;99.90
23685;DHT22;12020;51.384;6.908;2024-02-26T12:43:42;7.20;99.90
23685;DHT22;12020;51.384;6.908;2024-02-26T12:46:07;7.30;99.90
23685;DHT22;12020;51.384;6.908;2024-02-26T12:48:33;7.30;99.90
23685;DHT22;12020;51.384;6.908;2024-02-26T12:50:59;7.40;99.90
23685;DHT22;12020;51.384;6.908;2024-02-26T12:53:25;7.30;99.90
23685;DHT22;12020;51.384;6.908;2024-02-26T12:55:51;7.30;99.90
23685;DHT22;12020;51.384;6.908;2024-02-26T12:58:17;7.40;99.90
23685;DHT22;12020;51.384;6.908;2024-02-26T13:00:44;7.40;99.90
23685;DHT22;12020;51.384;6.908;2024-02-26T13:03:11;7.40;99.90
23685;DHT22;12020;51.384;6.908;2024-02-26T13:05:37;7.50;99.90
23685;DHT22;12020;51.384;6.908;2024-02-26T13:08:03;7.50;99.90
23685;DHT22;12020;51.384;6.908;2024-02-26T13:10:29;7.50;99.90
23685;DHT22;12020;51.384;6.908;2024-02-26T13:12:54;7.50;99.90
23685;DHT22;12020;51.384;6.908;2024-02-26T13:15:20;7.60;99.90
23685;DHT22;12020;51.384;6.908;2024-02-26T13:17:46;7.70;99.90
23685;DHT22;12020;51.384;6.908;2024-02-26T13:20:12;7.70;99.90
23685;DHT22;12020;51.384;6.908;2024-02-26T13:25:43;7.70;99.90
23685;DHT22;12020;51.384;6.908;2024-02-26T13:30:36;7.70;99.90
23685;DHT22;12020;51.384;6.908;2024-02-26T13:33:11;7.70;99.90
23685;DHT22;12020;51.384;6.908;2024-02-26T13:35:38;7.70;99.90
23685;DHT22;12020;51.384;6.908;2024-02-26T13:38:07;7.70;99.90
23685;DHT22;12020;51.384;6.908;2024-02-26T13:40:33;7.60;99.90
23685;DHT22;12020;51.384;6.908;2024-02-26T13:42:59;7.60;99.90
23685;DHT22;12020;51.384;6.908;2024-02-26T13:45:25;7.60;99.90
23685;DHT22;12020;51.384;6.908;2024-02-26T13:47:50;7.70;99.90
23685;DHT22;12020;51.384;6.908;2024-02-26T13:50:16;7.70;99.90
23685;DHT22;12020;51.384;6.908;2024-02-26T13:52:47;7.70;99.90
23685;DHT22;12020;51.384;6.908;2024-02-26T13:55:12;7.80;99.90
23685;DHT22;12020;51.384;6.908;2024-02-26T13:57:39;7.80;99.90
23685;DHT22;12020;51.384;6.908;2024-02-26T14:00:05;7.80;99.90
23685;DHT22;12020;51.384;6.908;2024-02-26T14:02:31;7.80;99.90
23685;DHT22;12020;51.384;6.908;2024-02-26T14:04:57;7.90;99.90
23685;DHT22;12020;51.384;6.908;2024-02-26T14:07:22;7.80;99.90
23685;DHT22;12020;51.384;6.908;2024-02-26T14:09:48;7.80;99.90
23685;DHT22;12020;51.384;6.908;2024-02-26T14:12:14;7.80;99.90
23685;DHT22;12020;51.384;6.908;2024-02-26T14:14:39;7.80;99.90
23685;DHT22;12020;51.384;6.908;2024-02-26T14:17:07;7.70;99.90
23685;DHT22;12020;51.384;6.908;2024-02-26T14:19:33;7.70;99.90
23685;DHT22;12020;51.384;6.908;2024-02-26T14:21:58;7.70;99.90
23685;DHT22;12020;51.384;6.908;2024-02-26T14:24:24;7.70;99.90
23685;DHT22;12020;51.384;6.908;2024-02-26T14:26:50;7.70;99.90
23685;DHT22;12020;51.384;6.908;2024-02-26T14:29:16;7.70;99.90
23685;DHT22;12020;51.384;6.908;2024-02-26T14:31:42;7.70;99.90
23685;DHT22;12020;51.384;6.908;2024-02-26T14:34:07;7.70;99.90
23685;DHT22;12020;51.384;6.908;2024-02-26T14:36:34;7.70;99.90
23685;DHT22;12020;51.384;6.908;2024-02-26T14:39:00;7.70;99.90
23685;DHT22;12020;51.384;6.908;2024-02-26T14:41:25;7.70;99.90
23685;DHT22;12020;51.384;6.908;2024-02-26T14:43:51;7.70;99.90
23685;DHT22;12020;51.384;6.908;2024-02-26T14:46:16;7.70;99.90
23685;DHT22;12020;51.384;6.908;2024-02-26T14:48:42;7.70;99.90
23685;DHT22;12020;51.384;6.908;2024-02-26T14:51:08;7.70;99.90
23685;DHT22;12020;51.384;6.908;2024-02-26T14:53:33;7.70;99.90
23685;DHT22;12020;51.384;6.908;2024-02-26T14:55:59;7.80;99.90
23685;DHT22;12020;51.384;6.908;2024-02-26T14:58:25;7.70;99.90
23685;DHT22;12020;51.384;6.908;2024-02-26T15:00:50;7.70;99.90
23685;DHT22;12020;51.384;6.908;2024-02-26T15:03:16;7.70;99.90
23685;DHT22;12020;51.384;6.908;2024-02-26T15:05:42;7.70;99.90
23685;DHT22;12020;51.384;6.908;2024-02-26T15:08:08;7.70;99.90
23685;DHT22;12020;51.384;6.908;2024-02-26T15:10:38;7.70;99.90
23685;DHT22;12020;51.384;6.908;2024-02-26T15:13:04;7.70;99.90
23685;DHT22;12020;51.384;6.908;2024-02-26T15:15:30;7.70;99.90
23685;DHT22;12020;51.384;6.908;2024-02-26T15:17:56;7.80;99.90
23685;DHT22;12020;51.384;6.908;2024-02-26T15:20:21;7.80;99.90
23685;DHT22;12020;51.384;6.908;2024-02-26T15:22:47;7.80;99.90
23685;DHT22;12020;51.384;6.908;2024-02-26T15:25:12;7.80;99.90
23685;DHT22;12020;51.384;6.908;2024-02-26T15:27:38;7.80;99.90
23685;DHT22;12020;51.384;6.908;2024-02-26T15:30:04;7.80;99.90
23685;DHT22;12020;51.384;6.908;2024-02-26T15:32:29;7.70;99.90
23685;DHT22;12020;51.384;6.908;2024-02-26T15:34:55;7.70;99.90
23685;DHT22;12020;51.384;6.908;2024-02-26T15:37:20;7.70;99.90
23685;DHT22;12020;51.384;6.908;2024-02-26T15:39:47;7.70;99.90
23685;DHT22;12020;51.384;6.908;2024-02-26T15:42:13;7.70;99.90
23685;DHT22;12020;51.384;6.908;2024-02-26T15:44:38;7.70;99.90
23685;DHT22;12020;51.384;6.908;2024-02-26T15:47:04;7.70;99.90
23685;DHT22;12020;51.384;6.908;2024-02-26T15:49:30;7.70;99.90
23685;DHT22;12020;51.384;6.908;2024-02-26T15:51:57;7.70;99.90
23685;DHT22;12020;51.384;6.908;2024-02-26T15:54:23;7.70;99.90
23685;DHT22;12020;51.384;6.908;2024-02-26T15:56:49;7.60;99.90
23685;DHT22;12020;51.384;6.908;2024-02-26T15:59:15;7.60;99.90
23685;DHT22;12020;51.384;6.908;2024-02-26T16:01:40;7.60;99.90
23685;DHT22;12020;51.384;6.908;2024-02-26T16:04:06;7.60;99.90
23685;DHT22;12020;51.384;6.908;2024-02-26T16:06:33;7.60;99.90
23685;DHT22;12020;51.384;6.908;2024-02-26T16:09:00;7.60;99.90
23685;DHT22;12020;51.384;6.908;2024-02-26T16:11:26;7.50;99.90
23685;DHT22;12020;51.384;6.908;2024-02-26T16:13:54;7.50;99.90
23685;DHT22;12020;51.384;6.908;2024-02-26T16:16:23;7.50;99.90
23685;DHT22;12020;51.384;6.908;2024-02-26T16:18:51;7.50;99.90